Terminal Aerodrome Forecast
Issued by NWS

Home | Current Version | Previous Version | Text Only | Print | Product List | Glossary On
Versions: 1 2 3 4 5 6 7 8 9 10 11 12 13 14 15 16 17 18 19 20 21 22 23 24 25 26 27 28 29 30 31 32 33 34 35 36 37 38 39
000
FTUS41 KBOX 051526 AAA
TAFFMH
TAF AMD
KFMH 051526Z 0515/0612 32010G18KT 1SM -SN BR OVC008
     FM060000 31009KT 2SM -SN OVC003
     FM060400 32008KT P6SM BKN050
     FM060600 34008KT P6SM SCT120=

USA.gov is the U.S. government's official web portal to all federal, state and local government web resources and services.